GQNO

Nouakchott–Oumtounsy International Airport

Nouakchott, Mauritania
METAR GQNO 221100Z 11008KT CAVOK 36/13 Q1012 NOSIG
Observed Flight Rules
Sep-22 @ 11:00 UTC (4 hours ago) Visual Flight Rules
Wind Visibility Clouds
110° at 8 knots 10,000+ meters
Temperatures Readings
Current 36°C / 97°F
Dewpoint 13°C / 55°F
Humidity 25%
Altimeter 29.88" Hg
Pressure 1012 hPa
Elevation 4
METAR GQNO 221100Z 11008KT CAVOK 36/13 Q1012 NOSIG
Observed Flight Rules
Sep-22 @ 11:00 UTC
(4 hours ago)
VFR
Wind Visibility
110° at 8 knots 10,000+ meters
Clouds
Temperature Dewpoint
36°C / 97°F 13°C / 55°F
Humidity Altimeter Pressure
25% 29.88" Hg 1012 hPa